Time;durP1;ratioP1;P1;durP2;ratioP2;P2;SDS_P1;SDS_P2;PMS_P1;PMS_P2;Temp;Humidity;BMP_temperature;BMP_pressure;BME280_temperature;BME280_humidity;BME280_pressure;Samples;Min_cycle;Max_cycle;Signal;HPM_P1;HPM_P2
2023/09/13 00:02:08;;;;;;;3.38;0.90;;;;;;;27.52;35.76;100994.22;5007992;28;20056;-79
2023/09/13 00:04:37;;;;;;;5.82;0.75;;;;;;;27.47;36.89;100988.22;5002682;28;20158;-80
2023/09/13 00:07:09;;;;;;;1.70;0.80;;;;;;;27.41;36.89;100983.97;5009016;28;20145;-81
2023/09/13 00:09:41;;;;;;;1.70;0.65;;;;;;;27.41;36.12;100989.28;4998480;28;20050;-80
2023/09/13 00:12:09;;;;;;;4.43;0.80;;;;;;;27.33;36.78;100986.94;5001647;28;20669;-78
2023/09/13 00:14:38;;;;;;;5.72;0.73;;;;;;;27.26;37.43;101001.38;5005810;28;20046;-77
2023/09/13 00:17:16;;;;;;;7.03;1.42;;;;;;;27.19;37.63;100985.66;5011376;28;20184;-80
2023/09/13 00:19:57;;;;;;;4.15;0.68;;;;;;;27.12;37.72;100991.19;4993220;28;20058;-81
2023/09/13 00:22:37;;;;;;;3.10;0.60;;;;;;;27.06;37.44;100987.88;4982275;28;20054;-81
2023/09/13 00:25:09;;;;;;;4.35;0.70;;;;;;;27.02;38.15;100991.56;4983861;28;20661;-78
2023/09/13 00:27:38;;;;;;;4.50;0.65;;;;;;;27.01;38.77;100990.72;4984509;28;20049;-79
2023/09/13 00:30:10;;;;;;;2.33;0.63;;;;;;;26.99;38.38;100986.38;4988591;28;20061;-78
2023/09/13 00:32:39;;;;;;;3.88;0.90;;;;;;;26.89;37.51;100992.00;4975997;28;20133;-77
2023/09/13 00:35:08;;;;;;;2.63;0.60;;;;;;;26.82;39.35;100995.78;4981726;28;20072;-77
2023/09/13 00:37:37;;;;;;;3.38;0.80;;;;;;;26.72;39.36;100989.91;4983308;28;20065;-79
2023/09/13 00:40:10;;;;;;;2.85;0.77;;;;;;;26.67;37.68;100996.31;4984045;28;20141;-76
2023/09/13 00:42:40;;;;;;;;;;;;;;;26.64;36.58;101001.69;4979328;28;20128;-78
2023/09/13 00:45:09;;;;;;;2.45;1.00;;;;;;;26.68;36.79;101000.69;4983348;28;19928;-79
2023/09/13 00:47:39;;;;;;;3.95;0.73;;;;;;;26.70;37.11;101001.50;4980161;28;20228;-76
2023/09/13 00:50:18;;;;;;;3.13;0.80;;;;;;;26.61;38.19;101004.47;4989600;28;20600;-76
2023/09/13 00:52:48;;;;;;;4.38;0.82;;;;;;;26.64;38.95;101012.31;4982565;28;20062;-74
2023/09/13 00:55:22;;;;;;;4.22;0.90;;;;;;;26.62;39.02;101015.03;4981817;28;20082;-76
2023/09/13 00:57:52;;;;;;;6.90;0.98;;;;;;;26.54;39.54;101006.44;4981863;28;20086;-77
2023/09/13 01:00:24;;;;;;;4.07;0.85;;;;;;;26.57;39.53;101021.41;4978235;28;20097;-77
2023/09/13 01:02:54;;;;;;;2.55;0.70;;;;;;;26.49;39.77;101017.19;4965411;28;20532;-74
2023/09/13 01:05:24;;;;;;;2.78;0.82;;;;;;;26.42;39.79;101028.94;4966810;28;20051;-74
2023/09/13 01:07:58;;;;;;;3.60;1.00;;;;;;;26.40;40.22;101020.16;4981877;28;20151;-77
2023/09/13 01:10:29;;;;;;;1.63;0.90;;;;;;;26.27;40.26;101021.44;4987708;28;20047;-78
2023/09/13 01:12:58;;;;;;;2.60;0.90;;;;;;;26.20;40.29;101028.72;4988778;28;20054;-74
2023/09/13 01:15:30;;;;;;;2.58;0.90;;;;;;;26.09;40.03;101022.88;4984800;28;20058;-75
2023/09/13 01:18:08;;;;;;;2.40;0.70;;;;;;;26.04;40.60;101032.75;4978069;28;20053;-77
2023/09/13 01:20:56;;;;;;;1.58;0.77;;;;;;;26.00;40.87;101031.13;5002244;28;20746;-76
2023/09/13 01:23:54;;;;;;;1.75;0.80;;;;;;;26.00;41.14;101034.66;5009891;28;20057;-74
2023/09/13 01:26:50;;;;;;;2.30;0.70;;;;;;;25.93;41.19;101033.13;4989436;28;20104;-74
2023/09/13 01:29:23;;;;;;;5.47;0.77;;;;;;;25.90;41.90;101033.19;5000643;28;20221;-76
2023/09/13 01:31:54;;;;;;;1.63;0.60;;;;;;;25.87;42.14;101041.25;5009071;28;20395;-76
2023/09/13 01:34:23;;;;;;;4.93;0.85;;;;;;;25.84;42.71;101041.31;5003354;28;20046;-76
2023/09/13 01:36:56;;;;;;;1.15;0.50;;;;;;;25.78;43.19;101037.03;5003570;28;20518;-76
2023/09/13 01:39:25;;;;;;;2.42;0.70;;;;;;;25.72;43.59;101037.19;5004932;28;20046;-72
2023/09/13 01:42:00;;;;;;;2.65;0.55;;;;;;;25.65;43.96;101036.50;5004472;28;20050;-74
2023/09/13 01:44:35;;;;;;;3.08;0.60;;;;;;;25.59;43.93;101036.72;5011669;28;20046;-76
2023/09/13 01:47:07;;;;;;;4.57;0.90;;;;;;;25.54;44.35;101037.72;5027194;28;20038;-75
2023/09/13 01:49:37;;;;;;;1.45;0.60;;;;;;;25.47;44.77;101039.69;5025995;28;20042;-77
2023/09/13 01:52:09;;;;;;;3.20;0.82;;;;;;;25.42;45.46;101049.53;5022258;28;20042;-77
2023/09/13 01:54:41;;;;;;;1.35;0.80;;;;;;;25.35;45.55;101047.97;5001301;28;20049;-76
2023/09/13 01:57:09;;;;;;;;;;;;;;;25.28;45.96;101040.19;5009859;28;20046;-76
2023/09/13 01:59:40;;;;;;;2.20;0.80;;;;;;;25.15;46.38;101036.13;5007066;28;20319;-76
2023/09/13 02:02:08;;;;;;;3.15;0.43;;;;;;;25.05;46.01;101042.56;5001850;28;20048;-76
2023/09/13 02:04:37;;;;;;;2.67;0.57;;;;;;;25.03;46.65;101049.66;5012804;28;20042;-77
2023/09/13 02:07:06;;;;;;;2.45;0.80;;;;;;;24.96;47.29;101050.72;5004331;28;20046;-76
2023/09/13 02:09:36;;;;;;;0.93;0.50;;;;;;;24.90;47.35;101053.53;4999066;28;20475;-75
2023/09/13 02:12:06;;;;;;;1.00;0.50;;;;;;;24.81;47.44;101058.16;5007113;28;20049;-75
2023/09/13 02:14:36;;;;;;;1.65;0.50;;;;;;;24.74;47.73;101051.28;5002336;28;20590;-76
2023/09/13 02:17:09;;;;;;;2.20;0.50;;;;;;;24.70;48.12;101054.91;4999030;28;20583;-77
2023/09/13 02:19:38;;;;;;;2.40;0.40;;;;;;;24.61;48.75;101057.78;5004181;28;20140;-75
2023/09/13 02:22:07;;;;;;;2.55;0.82;;;;;;;24.56;48.87;101059.66;5004579;28;20054;-76
2023/09/13 02:24:39;;;;;;;0.75;0.50;;;;;;;24.51;49.09;101069.47;5004632;28;20050;-76
2023/09/13 02:27:11;;;;;;;0.70;0.47;;;;;;;24.45;49.26;101070.47;4999123;28;20321;-75
2023/09/13 02:29:40;;;;;;;1.13;0.40;;;;;;;24.36;49.73;101065.38;5004604;28;20550;-77
2023/09/13 02:32:11;;;;;;;0.40;0.30;;;;;;;24.30;50.05;101076.94;5002840;28;20053;-77
2023/09/13 02:34:40;;;;;;;2.42;0.32;;;;;;;24.25;50.81;101079.69;5007450;28;20144;-77
2023/09/13 02:37:10;;;;;;;0.38;0.20;;;;;;;24.21;51.11;101072.75;5006861;28;20077;-77
2023/09/13 02:39:41;;;;;;;0.73;0.30;;;;;;;24.15;50.92;101078.16;5012869;28;20531;-79
2023/09/13 02:42:10;;;;;;;1.17;0.30;;;;;;;24.11;51.51;101076.50;5009218;28;20101;-74
2023/09/13 02:44:41;;;;;;;1.13;0.30;;;;;;;24.03;51.37;101079.31;5009343;28;20061;-77
2023/09/13 02:47:14;;;;;;;1.38;0.28;;;;;;;23.98;51.18;101081.19;5005919;28;20056;-78
2023/09/13 02:49:43;;;;;;;0.50;0.20;;;;;;;23.94;51.33;101082.16;5004183;28;20153;-77
2023/09/13 02:52:12;;;;;;;1.70;0.30;;;;;;;23.91;51.03;101074.25;5006810;28;20117;-73
2023/09/13 02:54:50;;;;;;;3.03;0.88;;;;;;;23.85;51.96;101084.13;5003229;28;20510;-76
2023/09/13 02:57:19;;;;;;;1.85;0.50;;;;;;;23.80;52.18;101082.44;5003942;28;20049;-76
2023/09/13 02:59:48;;;;;;;1.63;0.60;;;;;;;23.77;52.24;101079.81;5005332;28;20085;-76
2023/09/13 03:02:18;;;;;;;0.75;0.50;;;;;;;23.74;52.67;101092.22;5003215;28;20607;-76
2023/09/13 03:04:54;;;;;;;1.50;0.55;;;;;;;23.69;52.93;101088.78;5005929;28;20078;-78
2023/09/13 03:07:23;;;;;;;1.40;0.40;;;;;;;23.64;53.08;101099.47;5004524;28;20468;-77
2023/09/13 03:09:55;;;;;;;1.13;0.30;;;;;;;23.57;53.60;101100.44;5001305;28;20169;-75
2023/09/13 03:12:24;;;;;;;2.10;0.40;;;;;;;23.48;53.64;101101.50;5003572;28;20496;-77
2023/09/13 03:14:59;;;;;;;0.88;0.35;;;;;;;23.43;54.02;101103.34;5002875;28;20041;-75
2023/09/13 03:17:31;;;;;;;2.45;0.68;;;;;;;23.35;54.92;101100.00;5010793;28;20042;-76
2023/09/13 03:20:01;;;;;;;0.73;0.40;;;;;;;23.25;54.91;101114.22;5009605;28;20064;-76
2023/09/13 03:22:36;;;;;;;2.03;0.43;;;;;;;23.14;55.90;101112.66;5001174;28;20073;-75
2023/09/13 03:25:09;;;;;;;2.30;0.47;;;;;;;23.09;55.53;101113.63;5003522;28;20061;-80
2023/09/13 03:27:38;;;;;;;0.85;0.40;;;;;;;23.02;56.40;101123.44;5007711;28;20130;-78
2023/09/13 03:30:09;;;;;;;0.63;0.30;;;;;;;22.98;56.88;101121.69;5007925;28;20144;-78
2023/09/13 03:32:42;;;;;;;0.75;0.40;;;;;;;22.94;56.70;101130.56;5005046;28;20508;-77
2023/09/13 03:35:11;;;;;;;0.82;0.30;;;;;;;22.90;56.75;101123.56;5014338;28;20045;-75
2023/09/13 03:37:39;;;;;;;0.45;0.35;;;;;;;22.85;57.51;101120.16;5007387;28;20058;-77
2023/09/13 03:40:09;;;;;;;1.88;0.47;;;;;;;22.83;56.98;101127.22;5007766;28;20065;-78
2023/09/13 03:42:43;;;;;;;1.50;0.47;;;;;;;22.79;58.10;101137.81;5006004;28;20586;-75
2023/09/13 03:45:12;;;;;;;1.27;0.30;;;;;;;22.79;57.39;101143.09;5001430;28;20041;-74
2023/09/13 03:47:45;;;;;;;1.40;0.60;;;;;;;22.76;58.18;101148.41;5006828;28;20081;-76
2023/09/13 03:50:22;;;;;;;1.05;0.50;;;;;;;22.76;58.15;101150.16;5006521;28;20532;-77
2023/09/13 03:52:51;;;;;;;1.65;0.55;;;;;;;22.73;58.38;101148.44;5003776;28;20059;-78
2023/09/13 03:55:20;;;;;;;1.05;0.55;;;;;;;22.69;59.10;101152.03;5004273;28;20071;-75
2023/09/13 03:57:50;;;;;;;1.35;0.40;;;;;;;22.64;58.81;101161.78;5005971;28;20128;-75
2023/09/13 04:00:25;;;;;;;1.80;0.40;;;;;;;22.61;58.61;101164.47;5002672;28;20046;-77
2023/09/13 04:02:55;;;;;;;0.77;0.35;;;;;;;22.61;59.10;101166.19;4998975;28;20150;-75
2023/09/13 04:05:24;;;;;;;0.75;0.57;;;;;;;22.61;58.88;101176.75;5012709;28;20046;-73
2023/09/13 04:07:54;;;;;;;1.90;1.00;;;;;;;22.58;58.63;101175.91;5007839;28;20186;-75
2023/09/13 04:10:25;;;;;;;1.27;0.82;;;;;;;22.58;58.12;101173.25;5006228;28;20592;-74
2023/09/13 04:12:54;;;;;;;1.30;0.55;;;;;;;22.55;58.45;101169.81;5004440;28;20053;-74
2023/09/13 04:15:23;;;;;;;0.50;0.47;;;;;;;22.53;58.42;101169.81;5009040;28;20362;-76
2023/09/13 04:17:52;;;;;;;2.08;0.30;;;;;;;22.51;59.66;101178.66;5008725;28;20042;-79
2023/09/13 04:20:23;;;;;;;4.80;0.50;;;;;;;22.48;58.98;101178.69;5012835;28;20148;-74
2023/09/13 04:22:51;;;;;;;1.05;0.40;;;;;;;22.45;58.53;101178.72;5001355;28;20046;-75
2023/09/13 04:25:20;;;;;;;6.65;1.13;;;;;;;22.43;57.97;101180.53;5005043;28;20052;-76
2023/09/13 04:27:50;;;;;;;1.33;0.45;;;;;;;22.42;59.03;101181.41;5007967;28;20105;-75
2023/09/13 04:30:19;;;;;;;0.98;0.40;;;;;;;22.38;58.25;101188.50;5009230;28;20144;-74
2023/09/13 04:32:52;;;;;;;1.02;0.43;;;;;;;22.34;57.69;101187.66;5008391;28;20056;-77
2023/09/13 04:35:23;;;;;;;0.40;0.30;;;;;;;22.28;59.40;101185.09;5004508;28;20128;-75
2023/09/13 04:37:51;;;;;;;1.38;0.77;;;;;;;22.21;59.72;101183.41;5011256;28;20598;-76
2023/09/13 04:40:21;;;;;;;1.90;0.40;;;;;;;22.16;60.53;101182.56;4999401;28;20050;-78
2023/09/13 04:42:55;;;;;;;0.93;0.32;;;;;;;22.06;61.13;101186.19;5007508;28;20132;-74
2023/09/13 04:45:24;;;;;;;3.00;0.60;;;;;;;21.93;61.24;101191.59;5009332;28;20046;-75
2023/09/13 04:47:53;;;;;;;2.83;0.55;;;;;;;21.87;61.75;101190.78;5016850;28;20084;-76
2023/09/13 04:50:23;;;;;;;1.90;0.60;;;;;;;21.80;62.55;101184.69;5009012;28;20211;-75
2023/09/13 04:52:52;;;;;;;2.25;0.52;;;;;;;21.75;62.43;101194.41;5009409;28;20046;-76
2023/09/13 04:55:23;;;;;;;2.42;0.50;;;;;;;21.71;62.28;101195.31;5015242;28;20161;-76
2023/09/13 04:57:52;;;;;;;1.45;0.50;;;;;;;21.65;62.67;101200.69;5011365;28;20049;-76
2023/09/13 05:00:21;;;;;;;2.72;0.73;;;;;;;21.61;63.09;101204.22;5011514;28;20062;-75
2023/09/13 05:02:49;;;;;;;1.65;0.85;;;;;;;21.53;63.11;101204.25;5008988;28;20124;-76
2023/09/13 05:05:24;;;;;;;1.30;0.50;;;;;;;21.48;63.56;101204.31;5011683;28;20145;-77
2023/09/13 05:07:55;;;;;;;3.45;0.75;;;;;;;21.41;64.32;101210.50;5009497;28;20141;-77
2023/09/13 05:10:23;;;;;;;1.52;0.70;;;;;;;21.31;65.03;101206.19;5010596;28;20054;-79
2023/09/13 05:12:52;;;;;;;1.75;0.73;;;;;;;21.25;65.16;101214.13;5011064;28;20054;-77
2023/09/13 05:15:24;;;;;;;1.05;0.63;;;;;;;21.19;65.50;101211.50;5007404;28;20091;-77
2023/09/13 05:17:53;;;;;;;3.08;0.85;;;;;;;21.11;66.19;101222.09;5008964;28;20050;-77
2023/09/13 05:20:21;;;;;;;2.15;1.08;;;;;;;21.04;66.21;101223.91;5011920;28;20133;-79
2023/09/13 05:22:50;;;;;;;1.08;0.63;;;;;;;20.97;67.01;101226.59;5008505;28;20504;-77
2023/09/13 05:25:25;;;;;;;3.72;0.80;;;;;;;20.88;67.13;101222.25;5006137;28;20085;-75
2023/09/13 05:27:54;;;;;;;2.50;0.75;;;;;;;20.80;68.65;101224.03;5017117;28;20092;-76
2023/09/13 05:30:23;;;;;;;3.40;0.85;;;;;;;20.69;69.25;101221.47;5009064;28;20069;-77
2023/09/13 05:32:52;;;;;;;6.10;0.80;;;;;;;20.61;69.36;101221.50;5008517;28;20046;-76
2023/09/13 05:35:21;;;;;;;3.53;0.85;;;;;;;20.55;69.42;101220.59;5004516;28;20103;-76
2023/09/13 05:37:53;;;;;;;4.13;1.10;;;;;;;20.51;69.99;101218.00;5010168;28;20058;-75
2023/09/13 05:40:23;;;;;;;1.92;0.85;;;;;;;20.46;70.27;101224.19;5009137;28;20586;-77
2023/09/13 05:42:52;;;;;;;3.88;0.77;;;;;;;20.44;70.97;101231.19;5000388;28;20491;-76
2023/09/13 05:45:23;;;;;;;5.10;0.75;;;;;;;20.41;70.82;101232.09;5007606;28;20050;-75
2023/09/13 05:47:52;;;;;;;8.55;0.98;;;;;;;20.36;71.88;101223.31;5014282;28;20049;-78
2023/09/13 05:50:20;;;;;;;2.80;0.60;;;;;;;20.34;72.40;101217.22;5006403;28;20038;-76
2023/09/13 05:52:49;;;;;;;3.10;0.80;;;;;;;20.30;72.74;101231.25;5010162;28;20133;-77
2023/09/13 05:55:19;;;;;;;3.50;0.82;;;;;;;20.22;72.95;101231.25;5011379;28;20046;-75
2023/09/13 05:57:50;;;;;;;2.95;0.90;;;;;;;20.20;72.73;101232.13;5006938;28;20056;-77
2023/09/13 06:00:20;;;;;;;5.15;1.00;;;;;;;20.17;73.22;101233.00;5006179;28;20054;-75
2023/09/13 06:02:48;;;;;;;2.33;1.10;;;;;;;20.16;73.09;101233.91;5007934;28;20049;-75
2023/09/13 06:05:17;;;;;;;2.63;1.13;;;;;;;20.13;72.83;101241.78;5014731;28;20088;-76
2023/09/13 06:07:46;;;;;;;2.92;1.10;;;;;;;20.09;73.36;101251.44;5012031;28;20034;-75
2023/09/13 06:10:18;;;;;;;3.13;0.95;;;;;;;20.06;73.62;101261.06;5010164;28;20052;-77
2023/09/13 06:12:48;;;;;;;4.47;1.10;;;;;;;20.05;74.03;101264.56;5011952;28;20046;-77
2023/09/13 06:15:18;;;;;;;4.13;1.35;;;;;;;20.04;74.52;101263.72;5008643;28;20061;-78
2023/09/13 06:17:47;;;;;;;2.83;1.05;;;;;;;20.04;74.50;101268.97;5011264;28;20069;-77
2023/09/13 06:20:17;;;;;;;4.13;1.00;;;;;;;20.05;74.66;101272.47;5007400;28;20141;-77
2023/09/13 06:22:46;;;;;;;3.90;1.42;;;;;;;19.99;75.33;101259.31;5010792;28;20476;-78
2023/09/13 06:25:17;;;;;;;3.90;1.15;;;;;;;19.98;74.87;101278.59;5005054;28;20073;-78
2023/09/13 06:27:45;;;;;;;2.35;1.10;;;;;;;19.94;74.63;101280.34;5007673;28;20085;-77
2023/09/13 06:30:16;;;;;;;3.85;1.13;;;;;;;19.92;74.33;101278.59;5007174;28;20104;-77
2023/09/13 06:32:48;;;;;;;1.65;0.80;;;;;;;19.90;75.08;101275.97;5011228;28;20054;-78
2023/09/13 06:35:17;;;;;;;2.67;1.02;;;;;;;19.85;75.65;101281.22;5007223;28;20037;-79
2023/09/13 06:37:47;;;;;;;5.50;1.17;;;;;;;19.80;75.36;101279.47;5003466;28;20370;-77
2023/09/13 06:40:17;;;;;;;7.93;1.73;;;;;;;19.76;75.53;101273.34;5002889;28;20056;-79
2023/09/13 06:42:48;;;;;;;4.22;1.25;;;;;;;19.76;76.35;101281.22;5007893;28;20050;-78
2023/09/13 06:45:19;;;;;;;1.95;0.90;;;;;;;19.71;76.49;101271.59;5004257;28;20054;-76
2023/09/13 06:47:48;;;;;;;1.90;0.95;;;;;;;19.65;76.84;101273.31;5005545;28;20134;-79
2023/09/13 06:50:18;;;;;;;3.30;0.90;;;;;;;19.62;77.33;101269.81;5007023;28;20096;-78
2023/09/13 06:52:55;;;;;;;1.65;0.70;;;;;;;19.58;77.64;101273.28;5006460;28;20065;-80
2023/09/13 06:55:24;;;;;;;0.80;0.63;;;;;;;19.54;77.56;101271.53;5008021;28;20049;-78
2023/09/13 06:57:52;;;;;;;0.55;0.50;;;;;;;19.48;77.99;101268.94;5012233;28;20038;-77
2023/09/13 07:00:23;;;;;;;3.38;0.77;;;;;;;19.43;78.05;101269.78;5010527;28;20077;-78
2023/09/13 07:02:54;;;;;;;4.30;0.85;;;;;;;19.44;77.70;101275.91;5003052;28;20146;-75
2023/09/13 07:05:23;;;;;;;1.02;0.50;;;;;;;19.43;78.04;101264.53;5003688;28;20058;-77
2023/09/13 07:07:52;;;;;;;0.90;0.80;;;;;;;19.43;78.37;101264.53;5005993;28;20060;-78
2023/09/13 07:10:20;;;;;;;1.67;0.90;;;;;;;19.44;78.56;101265.41;5005001;28;20049;-76
2023/09/13 07:12:51;;;;;;;1.40;0.70;;;;;;;19.45;78.11;101269.81;5011753;28;20065;-78
2023/09/13 07:15:22;;;;;;;0.70;0.50;;;;;;;19.45;77.95;101268.06;5018852;28;20053;-77
2023/09/13 07:17:51;;;;;;;1.60;0.60;;;;;;;19.45;78.11;101277.69;5024450;28;20132;-76
2023/09/13 07:20:20;;;;;;;1.70;0.70;;;;;;;19.43;77.80;101280.28;5022556;28;20117;-78
2023/09/13 07:22:48;;;;;;;1.85;0.57;;;;;;;19.41;78.57;101274.16;5027123;28;20076;-78
2023/09/13 07:25:17;;;;;;;4.40;1.00;;;;;;;19.40;78.49;101279.41;5032756;28;20044;-78
2023/09/13 07:27:46;;;;;;;2.65;0.70;;;;;;;19.36;79.19;101283.78;5029758;28;20030;-77
2023/09/13 07:30:15;;;;;;;3.72;1.15;;;;;;;19.34;79.16;101284.66;5029225;28;20161;-77
2023/09/13 07:32:45;;;;;;;3.35;0.75;;;;;;;19.33;79.63;101286.38;5022512;28;20077;-79
2023/09/13 07:35:20;;;;;;;3.33;1.10;;;;;;;19.28;80.49;101280.25;5008061;28;20054;-75
2023/09/13 07:37:50;;;;;;;4.28;0.90;;;;;;;19.27;80.87;101290.78;5012466;28;20072;-77
2023/09/13 07:40:19;;;;;;;5.70;0.70;;;;;;;19.24;80.98;101291.59;5005869;28;20050;-78
2023/09/13 07:42:47;;;;;;;2.78;0.63;;;;;;;19.23;80.94;101292.50;5004033;28;20056;-79
2023/09/13 07:45:22;;;;;;;6.05;0.77;;;;;;;19.24;81.14;101289.00;5010353;28;20050;-79
2023/09/13 07:47:52;;;;;;;4.93;0.77;;;;;;;19.24;81.38;101294.22;5014425;28;20606;-81
2023/09/13 07:50:31;;;;;;;0.70;0.50;;;;;;;19.23;81.42;101297.75;5006999;28;20062;-77
2023/09/13 07:53:02;;;;;;;0.90;0.63;;;;;;;19.21;81.55;101292.47;5006754;28;20045;-78
2023/09/13 07:55:30;;;;;;;0.57;0.43;;;;;;;19.23;81.21;101289.88;5012780;28;20108;-77
2023/09/13 07:57:59;;;;;;;1.38;0.60;;;;;;;19.22;81.37;101299.50;5008088;28;20278;-76
2023/09/13 08:00:28;;;;;;;1.63;0.55;;;;;;;19.24;81.44;101299.47;5004975;28;20313;-78
2023/09/13 08:03:05;;;;;;;1.05;0.52;;;;;;;19.22;82.52;101296.00;5007634;28;20052;-78
2023/09/13 08:05:34;;;;;;;1.33;0.40;;;;;;;19.18;82.10;101299.50;5008952;28;20134;-79
2023/09/13 08:08:03;;;;;;;1.38;0.40;;;;;;;19.20;82.11;101297.75;5004302;28;20042;-78
2023/09/13 08:10:32;;;;;;;2.47;0.40;;;;;;;19.21;82.01;101304.72;5007431;28;20054;-76
2023/09/13 08:13:06;;;;;;;1.63;0.57;;;;;;;19.19;82.56;101299.47;5006151;28;20118;-76
2023/09/13 08:15:35;;;;;;;1.05;0.50;;;;;;;19.20;82.65;101292.50;5008976;28;20121;-75
2023/09/13 08:18:09;;;;;;;2.33;0.60;;;;;;;19.19;82.18;101303.84;5003718;28;20081;-77
2023/09/13 08:20:47;;;;;;;1.48;0.57;;;;;;;19.18;82.15;101302.13;5011806;28;20061;-76
2023/09/13 08:23:16;;;;;;;0.75;0.38;;;;;;;19.15;82.34;101300.38;5005720;28;20109;-77
2023/09/13 08:25:46;;;;;;;1.30;0.45;;;;;;;19.15;81.81;101304.69;5007395;28;20050;-76
2023/09/13 08:28:15;;;;;;;0.80;0.38;;;;;;;19.15;82.58;101300.38;5002766;28;20121;-76
2023/09/13 08:30:48;;;;;;;0.50;0.40;;;;;;;19.16;82.05;101306.47;5001496;28;20054;-77
2023/09/13 08:33:19;;;;;;;2.30;0.50;;;;;;;19.14;82.12;101303.84;5008962;28;20142;-76
2023/09/13 08:35:54;;;;;;;0.68;0.30;;;;;;;19.16;81.40;101309.97;5004778;28;20154;-76
2023/09/13 08:38:25;;;;;;;0.60;0.28;;;;;;;19.18;81.49;101304.75;5006103;28;20057;-77
2023/09/13 08:40:55;;;;;;;1.40;0.73;;;;;;;19.18;81.42;101315.22;5003092;28;20041;-76
2023/09/13 08:43:25;;;;;;;0.88;0.50;;;;;;;19.20;80.83;101314.34;5011307;28;20535;-75
2023/09/13 08:45:57;;;;;;;0.65;0.47;;;;;;;19.16;81.39;101301.22;5006055;28;20058;-77
2023/09/13 08:48:34;;;;;;;1.85;0.50;;;;;;;19.24;82.02;101313.50;5011686;28;20057;-77
2023/09/13 08:51:04;;;;;;;1.85;0.73;;;;;;;19.25;82.05;101306.50;5001820;28;20086;-77
2023/09/13 08:53:34;;;;;;;0.60;0.40;;;;;;;19.25;81.89;101309.13;5004967;28;20055;-76
2023/09/13 08:56:05;;;;;;;0.82;0.55;;;;;;;19.25;81.81;101309.13;5002201;28;20054;-76
2023/09/13 08:58:37;;;;;;;0.70;0.40;;;;;;;19.25;81.68;101304.75;5008335;28;20052;-76
2023/09/13 09:01:09;;;;;;;0.93;0.40;;;;;;;19.28;81.21;101301.25;5006068;28;20061;-76
2023/09/13 09:03:39;;;;;;;;;;;;;;;19.32;80.68;101307.41;5002850;28;20276;-76
2023/09/13 09:06:17;;;;;;;1.67;0.60;;;;;;;19.33;80.97;101314.38;5010105;28;20020;-78
2023/09/13 09:08:49;;;;;;;2.55;0.43;;;;;;;19.33;81.94;101309.13;5007596;28;20660;-76
2023/09/13 09:11:20;;;;;;;3.45;0.60;;;;;;;19.34;81.55;101311.75;5004665;28;20154;-77
2023/09/13 09:13:55;;;;;;;0.98;0.43;;;;;;;19.36;80.99;101317.03;5005080;28;20045;-77
2023/09/13 09:16:26;;;;;;;2.45;0.52;;;;;;;19.36;80.30;101307.41;5007403;28;20068;-77
2023/09/13 09:18:58;;;;;;;0.45;0.40;;;;;;;19.39;80.08;101317.03;5003774;28;20048;-78
2023/09/13 09:21:37;;;;;;;;;;;;;;;;;;;;;
2023/09/13 09:24:06;;;;;;;0.32;0.30;;;;;;;19.40;79.26;101321.38;5005328;28;20388;-77
2023/09/13 09:26:35;;;;;;;0.43;0.28;;;;;;;19.40;78.88;101327.53;5003546;28;20049;-77
2023/09/13 09:29:13;;;;;;;0.95;0.40;;;;;;;19.39;78.69;101324.91;5007970;28;20042;-76
2023/09/13 09:31:42;;;;;;;1.00;0.50;;;;;;;19.38;78.74;101328.41;5005379;28;20049;-76
2023/09/13 09:34:14;;;;;;;1.52;0.68;;;;;;;19.38;78.53;101325.78;5010815;28;20535;-75
2023/09/13 09:36:44;;;;;;;0.80;0.40;;;;;;;19.38;78.79;101329.28;5008552;28;20610;-76
2023/09/13 09:39:19;;;;;;;0.43;0.43;;;;;;;19.38;78.21;101337.16;5014259;28;20084;-75
2023/09/13 09:41:48;;;;;;;0.80;0.50;;;;;;;19.39;78.03;101324.91;5012713;28;20046;-77
2023/09/13 09:44:19;;;;;;;0.63;0.40;;;;;;;19.40;78.06;101332.78;5014204;28;20053;-74
2023/09/13 09:46:48;;;;;;;1.00;0.50;;;;;;;19.38;77.66;101329.28;5006280;28;20054;-75
2023/09/13 09:49:21;;;;;;;0.30;0.30;;;;;;;19.38;77.98;101329.28;5006413;28;20050;-76
2023/09/13 09:51:50;;;;;;;0.40;0.38;;;;;;;19.38;77.84;101334.53;5005364;28;20061;-76
2023/09/13 09:54:19;;;;;;;3.53;0.70;;;;;;;19.39;77.77;101338.88;5003765;28;20101;-76
2023/09/13 09:56:48;;;;;;;0.82;0.57;;;;;;;19.40;77.76;101338.03;5005238;28;20133;-75
2023/09/13 09:59:20;;;;;;;2.05;0.43;;;;;;;19.41;77.86;101333.66;5006691;28;20056;-75
2023/09/13 10:01:58;;;;;;;1.02;0.40;;;;;;;19.39;78.17;101330.16;5009103;28;20057;-76
2023/09/13 10:04:29;;;;;;;0.85;0.50;;;;;;;19.37;77.67;101327.50;5005379;28;20050;-78
2023/09/13 10:07:06;;;;;;;0.50;0.38;;;;;;;19.38;77.44;101331.91;5003965;28;20080;-76
2023/09/13 10:09:41;;;;;;;3.15;0.50;;;;;;;19.39;77.66;101330.16;5017938;28;20073;-75
2023/09/13 10:12:11;;;;;;;0.30;0.25;;;;;;;19.36;77.82;101323.16;5015193;28;20224;-75
2023/09/13 10:14:43;;;;;;;0.40;0.30;;;;;;;19.35;78.18;101324.00;5019091;28;20050;-76
2023/09/13 10:17:12;;;;;;;0.73;0.50;;;;;;;19.32;77.74;101326.63;5004454;28;20058;-78
2023/09/13 10:19:48;;;;;;;1.88;0.47;;;;;;;19.29;78.42;101329.25;5014490;28;20638;-76
2023/09/13 10:22:25;;;;;;;1.02;0.47;;;;;;;19.25;78.34;101322.25;5010531;28;20053;-74
2023/09/13 10:25:00;;;;;;;0.68;0.40;;;;;;;19.19;78.55;101324.84;5010840;28;20084;-77
2023/09/13 10:27:30;;;;;;;2.50;0.63;;;;;;;19.16;79.02;101325.72;5012231;28;20041;-77
2023/09/13 10:30:02;;;;;;;0.40;0.40;;;;;;;19.13;78.60;101327.47;5009822;28;20050;-76
2023/09/13 10:32:38;;;;;;;1.90;0.70;;;;;;;19.11;78.92;101329.19;5013319;28;20044;-77
2023/09/13 10:35:11;;;;;;;0.43;0.40;;;;;;;19.09;79.08;101323.94;5013373;28;20147;-78
2023/09/13 10:37:53;;;;;;;1.38;0.60;;;;;;;19.08;79.26;101326.53;5006998;28;20133;-77
2023/09/13 10:40:25;;;;;;;0.93;0.40;;;;;;;19.07;79.60;101323.06;5004579;28;20045;-77
2023/09/13 10:42:56;;;;;;;1.00;0.50;;;;;;;19.09;80.21;101325.69;5015333;28;20050;-76
2023/09/13 10:45:27;;;;;;;0.75;0.52;;;;;;;19.08;79.97;101324.81;5006187;28;20140;-77
2023/09/13 10:47:58;;;;;;;1.42;0.45;;;;;;;19.06;79.59;101323.94;5006843;28;20050;-76
2023/09/13 10:50:28;;;;;;;1.08;0.50;;;;;;;19.03;80.21;101332.69;5008905;28;20164;-75
2023/09/13 10:53:05;;;;;;;0.90;0.50;;;;;;;19.02;80.40;101327.41;5004639;28;20053;-76
2023/09/13 10:55:35;;;;;;;0.80;0.40;;;;;;;19.01;80.67;101329.16;5008007;28;20480;-76
2023/09/13 10:58:06;;;;;;;1.27;0.40;;;;;;;19.00;80.66;101335.25;5011194;28;20056;-77
2023/09/13 11:00:35;;;;;;;3.25;0.50;;;;;;;19.01;81.11;101333.50;5005559;28;20129;-77
2023/09/13 11:03:12;;;;;;;0.80;0.60;;;;;;;19.01;81.23;101344.00;5006980;28;20108;-76
2023/09/13 11:05:46;;;;;;;1.10;0.50;;;;;;;19.02;80.83;101343.16;5014486;28;20050;-74
2023/09/13 11:08:30;;;;;;;0.65;0.40;;;;;;;19.01;80.81;101344.91;5011498;28;20264;-75
2023/09/13 11:11:11;;;;;;;3.70;0.52;;;;;;;19.00;81.58;101339.63;5004002;28;20054;-76
2023/09/13 11:13:40;;;;;;;1.75;0.73;;;;;;;18.99;81.01;101346.63;5005357;28;20392;-76
2023/09/13 11:16:16;;;;;;;1.08;0.40;;;;;;;18.96;81.00;101346.59;5011204;28;20037;-78
2023/09/13 11:18:50;;;;;;;0.93;0.60;;;;;;;18.96;81.41;101336.13;5002962;28;20050;-77
2023/09/13 11:21:27;;;;;;;1.00;0.70;;;;;;;18.97;81.76;101331.78;5009737;28;20057;-77
2023/09/13 11:23:58;;;;;;;1.35;0.40;;;;;;;18.95;80.71;101333.50;5011180;28;20066;-77
2023/09/13 11:26:49;;;;;;;1.15;0.55;;;;;;;18.95;81.21;101344.00;5012218;28;20109;-78
2023/09/13 11:29:25;;;;;;;0.98;0.57;;;;;;;18.93;80.93;101330.00;5003853;28;20081;-76
2023/09/13 11:32:04;;;;;;;3.08;0.80;;;;;;;18.91;80.64;101337.84;5004045;28;20049;-75
2023/09/13 11:34:34;;;;;;;0.60;0.45;;;;;;;18.89;80.88;101336.97;5003992;28;20471;-77
2023/09/13 11:37:07;;;;;;;1.77;0.90;;;;;;;18.91;80.88;101340.47;5006729;28;20659;-75
2023/09/13 11:39:39;;;;;;;0.60;0.50;;;;;;;18.92;80.85;101339.63;5008936;28;20523;-76
2023/09/13 11:42:12;;;;;;;1.83;0.70;;;;;;;18.93;80.70;101338.72;5005923;28;20112;-74
2023/09/13 11:44:41;;;;;;;0.63;0.40;;;;;;;18.91;80.53;101347.47;5008425;28;20042;-76
2023/09/13 11:47:13;;;;;;;0.60;0.40;;;;;;;18.91;80.67;101353.59;5014331;28;20106;-76